Time;durP1;ratioP1;P1;durP2;ratioP2;P2;SDS_P1;SDS_P2;PMS_P1;PMS_P2;Temp;Humidity;BMP_temperature;BMP_pressure;BME280_temperature;BME280_humidity;BME280_pressure;Samples;Min_cycle;Max_cycle;Signal;HPM_P1;HPM_P2
2024/03/04 00:02:09;;;;;;;11.00;8.05;;;12.90;88.50;;;;;;4994306;28;20018;-78
2024/03/04 00:04:37;;;;;;;10.40;7.82;;;12.90;88.50;;;;;;4994669;28;20029;-77
2024/03/04 00:07:03;;;;;;;10.43;7.53;;;13.00;88.50;;;;;;4994717;28;20026;-76
2024/03/04 00:09:30;;;;;;;11.48;7.82;;;13.00;88.50;;;;;;4994772;28;20084;-77
2024/03/04 00:11:55;;;;;;;10.48;7.72;;;13.00;88.60;;;;;;5011907;28;20022;-78
2024/03/04 00:14:21;;;;;;;10.98;7.82;;;13.00;88.60;;;;;;4994847;28;20030;-77
2024/03/04 00:16:48;;;;;;;11.13;7.78;;;13.00;88.60;;;;;;4994738;28;20062;-77
2024/03/04 00:19:18;;;;;;;11.00;7.75;;;13.00;88.60;;;;;;4993967;28;20030;-77
2024/03/04 00:21:46;;;;;;;10.15;7.28;;;13.00;88.60;;;;;;4994451;28;20029;-77
2024/03/04 00:24:12;;;;;;;11.20;7.97;;;13.00;88.60;;;;;;4994312;28;20026;-78
2024/03/04 00:26:37;;;;;;;10.68;7.97;;;13.00;88.60;;;;;;5012071;28;20042;-78
2024/03/04 00:29:05;;;;;;;10.07;7.47;;;13.00;88.60;;;;;;4994091;28;20033;-77
2024/03/04 00:31:31;;;;;;;10.55;7.72;;;13.00;88.50;;;;;;4994320;28;20136;-78
2024/03/04 00:33:57;;;;;;;10.55;7.72;;;13.00;88.60;;;;;;4993949;28;20105;-77
2024/03/04 00:36:24;;;;;;;10.40;7.40;;;13.00;88.60;;;;;;4994209;28;20066;-78
2024/03/04 00:38:54;;;;;;;11.52;8.30;;;12.90;88.50;;;;;;4994311;28;20037;-77
2024/03/04 00:41:25;;;;;;;10.88;8.02;;;13.00;88.60;;;;;;4994587;28;20061;-77
2024/03/04 00:43:51;;;;;;;11.65;8.20;;;12.90;88.50;;;;;;4993706;28;20050;-76
2024/03/04 00:46:17;;;;;;;10.60;7.90;;;13.00;88.60;;;;;;4993858;28;20080;-76
2024/03/04 00:48:44;;;;;;;10.45;7.50;;;12.90;88.60;;;;;;5011706;28;20030;-77
2024/03/04 00:51:13;;;;;;;10.32;7.53;;;13.00;88.60;;;;;;4994139;28;20494;-77
2024/03/04 00:53:46;;;;;;;10.77;7.53;;;13.00;88.60;;;;;;4993892;28;20065;-78
2024/03/04 00:56:13;;;;;;;10.60;7.65;;;13.00;88.60;;;;;;4993990;28;20030;-77
2024/03/04 00:58:38;;;;;;;10.82;7.97;;;13.00;88.60;;;;;;4994097;28;20026;-77
2024/03/04 01:01:05;;;;;;;11.02;7.55;;;13.00;88.60;;;;;;5011612;28;20036;-78
2024/03/04 01:03:31;;;;;;;9.88;7.22;;;12.90;88.60;;;;;;4993628;28;20030;-76
2024/03/04 01:05:59;;;;;;;10.95;7.78;;;13.00;88.60;;;;;;4993985;28;20029;-77
2024/03/04 01:08:28;;;;;;;9.75;7.03;;;13.00;88.60;;;;;;4994023;28;20079;-77
2024/03/04 01:10:54;;;;;;;10.93;7.82;;;13.00;89.10;;;;;;4993873;28;20022;-77
2024/03/04 01:13:21;;;;;;;10.70;7.55;;;13.00;88.60;;;;;;5011504;28;20111;-77
2024/03/04 01:15:47;;;;;;;11.10;7.70;;;13.00;88.60;;;;;;4994068;28;20421;-77
2024/03/04 01:18:14;;;;;;;11.15;8.10;;;13.00;88.60;;;;;;5011389;28;20026;-77
2024/03/04 01:20:44;;;;;;;11.15;7.60;;;12.90;88.60;;;;;;4994067;28;20081;-77
2024/03/04 01:23:10;;;;;;;9.55;6.80;;;12.90;88.60;;;;;;5011347;28;20014;-77
2024/03/04 01:25:35;;;;;;;11.70;7.93;;;12.90;88.60;;;;;;4994004;28;20029;-76
2024/03/04 01:28:01;;;;;;;11.70;7.97;;;12.90;88.60;;;;;;4993694;28;20487;-77
2024/03/04 01:30:29;;;;;;;10.13;7.65;;;12.90;88.60;;;;;;4994325;28;20169;-78
2024/03/04 01:32:56;;;;;;;10.07;7.25;;;13.00;88.60;;;;;;5014898;28;20026;-78
2024/03/04 01:35:23;;;;;;;10.32;7.40;;;13.00;88.70;;;;;;4997493;28;20045;-76
2024/03/04 01:37:48;;;;;;;10.82;8.15;;;13.00;88.70;;;;;;4997418;28;20038;-77
2024/03/04 01:40:14;;;;;;;10.45;7.57;;;13.00;88.70;;;;;;4997566;28;20032;-77
2024/03/04 01:42:42;;;;;;;10.75;7.35;;;13.00;88.70;;;;;;4997390;28;20022;-77
2024/03/04 01:45:24;;;;;;;10.43;7.43;;;13.00;88.70;;;;;;4996949;28;20026;-77
2024/03/04 01:48:16;;;;;;;10.70;7.90;;;13.00;88.70;;;;;;4996918;28;20376;-76
2024/03/04 01:50:46;;;;;;;10.88;7.70;;;12.90;88.60;;;;;;4993407;28;20049;-78
2024/03/04 01:53:13;;;;;;;10.70;7.47;;;12.90;88.70;;;;;;5014598;28;20018;-78
2024/03/04 01:55:49;;;;;;;10.85;7.95;;;13.00;88.70;;;;;;5014747;28;20037;-78
2024/03/04 01:58:17;;;;;;;11.55;8.20;;;12.90;88.70;;;;;;4996845;28;20030;-78
2024/03/04 02:00:45;;;;;;;11.02;8.00;;;12.90;88.70;;;;;;5014539;28;20482;-76
2024/03/04 02:03:13;;;;;;;10.82;7.47;;;13.00;88.70;;;;;;4996606;28;20057;-77
2024/03/04 02:05:40;;;;;;;10.63;7.78;;;13.00;88.70;;;;;;4997262;28;20044;-78
2024/03/04 02:08:08;;;;;;;11.07;8.00;;;12.90;88.70;;;;;;4996884;28;20030;-77
2024/03/04 02:10:33;;;;;;;9.75;7.32;;;13.00;88.70;;;;;;5014529;28;20470;-77
2024/03/04 02:12:59;;;;;;;9.77;7.20;;;13.00;88.70;;;;;;5014318;28;20030;-77
2024/03/04 02:15:24;;;;;;;10.43;7.38;;;13.00;88.70;;;;;;4996780;28;20034;-77
2024/03/04 02:17:50;;;;;;;9.80;7.13;;;12.90;88.60;;;;;;4996451;28;20025;-76
2024/03/04 02:20:18;;;;;;;10.38;7.72;;;13.00;88.60;;;;;;4996519;28;20121;-78
2024/03/04 02:22:44;;;;;;;10.73;7.80;;;12.90;88.60;;;;;;4996242;28;20051;-77
2024/03/04 02:25:12;;;;;;;10.57;7.88;;;13.00;88.50;;;;;;4996416;28;20112;-77
2024/03/04 02:27:38;;;;;;;10.35;7.45;;;13.00;88.60;;;;;;5014173;28;20029;-77
2024/03/04 02:30:05;;;;;;;10.82;7.97;;;13.00;88.60;;;;;;4996381;28;20091;-77
2024/03/04 02:32:33;;;;;;;9.43;6.97;;;13.00;88.60;;;;;;4996236;28;20026;-78
2024/03/04 02:35:03;;;;;;;10.02;7.50;;;13.00;88.60;;;;;;4996357;28;20398;-78
2024/03/04 02:37:31;;;;;;;10.77;7.50;;;13.00;88.60;;;;;;4996059;28;20026;-77
2024/03/04 02:39:58;;;;;;;10.48;7.50;;;13.00;88.60;;;;;;5013740;28;20069;-77
2024/03/04 02:42:24;;;;;;;10.52;7.63;;;13.00;88.70;;;;;;4995478;28;20470;-77
2024/03/04 02:44:49;;;;;;;10.77;7.75;;;13.00;88.70;;;;;;5013696;28;20034;-77
2024/03/04 02:47:15;;;;;;;11.02;8.02;;;12.90;88.50;;;;;;4996071;28;20483;-78
2024/03/04 02:49:40;;;;;;;10.93;7.90;;;12.90;88.50;;;;;;5013664;28;20105;-76
2024/03/04 02:52:08;;;;;;;10.32;7.38;;;12.90;88.40;;;;;;5013461;28;20284;-78
2024/03/04 02:54:33;;;;;;;10.23;7.50;;;12.90;88.50;;;;;;4996341;28;20049;-78
2024/03/04 02:56:59;;;;;;;11.32;8.30;;;13.00;88.50;;;;;;4995974;28;20537;-78
2024/03/04 02:59:25;;;;;;;10.52;7.80;;;13.00;88.60;;;;;;4996097;28;20033;-78
2024/03/04 03:01:50;;;;;;;10.70;7.60;;;13.00;88.60;;;;;;4995614;28;20372;-77
2024/03/04 03:04:16;;;;;;;9.75;7.20;;;13.00;88.60;;;;;;5013389;28;20040;-77
2024/03/04 03:06:44;;;;;;;10.45;7.70;;;12.90;88.70;;;;;;4995955;28;20026;-78
2024/03/04 03:09:11;;;;;;;10.27;7.32;;;12.90;88.70;;;;;;5013529;28;20049;-78
2024/03/04 03:11:39;;;;;;;10.35;7.47;;;13.00;88.70;;;;;;5013424;28;20402;-77
2024/03/04 03:14:04;;;;;;;10.23;7.25;;;13.00;88.70;;;;;;5013070;28;20026;-77
2024/03/04 03:16:30;;;;;;;10.55;7.85;;;12.90;88.60;;;;;;5013291;28;20033;-78
2024/03/04 03:18:59;;;;;;;11.68;8.63;;;13.00;88.70;;;;;;4995509;28;20116;-78
2024/03/04 03:21:26;;;;;;;10.80;7.80;;;13.00;88.70;;;;;;4995715;28;20084;-77
2024/03/04 03:23:52;;;;;;;10.45;7.60;;;12.90;88.60;;;;;;5012924;28;20034;-78
2024/03/04 03:26:18;;;;;;;10.70;7.50;;;12.90;88.60;;;;;;5012979;28;20018;-78
2024/03/04 03:28:44;;;;;;;10.68;7.70;;;13.00;88.70;;;;;;4995470;28;20569;-77
2024/03/04 03:31:10;;;;;;;10.38;7.70;;;12.90;88.50;;;;;;4995244;28;20025;-77
2024/03/04 03:33:36;;;;;;;10.20;7.70;;;12.90;88.50;;;;;;4995105;28;20441;-78
2024/03/04 03:36:03;;;;;;;11.23;8.18;;;12.90;88.60;;;;;;5012912;28;20483;-78
2024/03/04 03:38:29;;;;;;;10.88;7.88;;;12.90;88.60;;;;;;4995083;28;20087;-78
2024/03/04 03:40:55;;;;;;;10.35;7.38;;;12.90;88.50;;;;;;4995011;28;20034;-77
2024/03/04 03:43:21;;;;;;;11.30;8.43;;;13.00;88.50;;;;;;4994930;28;20022;-77
2024/03/04 03:45:47;;;;;;;10.02;7.40;;;12.90;88.60;;;;;;5012832;28;20071;-78
2024/03/04 03:48:16;;;;;;;10.23;7.35;;;13.00;88.70;;;;;;5001279;28;20079;-78
2024/03/04 03:50:41;;;;;;;10.65;7.72;;;12.90;88.60;;;;;;4994702;28;20030;-77
2024/03/04 03:53:07;;;;;;;10.18;7.70;;;12.90;88.60;;;;;;4995045;28;20499;-76
2024/03/04 03:55:32;;;;;;;10.15;7.45;;;12.90;88.60;;;;;;4994179;28;20125;-78
2024/03/04 03:57:58;;;;;;;10.45;7.68;;;13.00;88.80;;;;;;5012338;28;20509;-77
2024/03/04 04:00:24;;;;;;;10.18;7.80;;;12.90;88.70;;;;;;4994903;28;20026;-77
2024/03/04 04:02:49;;;;;;;10.00;7.50;;;12.80;88.80;;;;;;4994619;28;20167;-78
2024/03/04 04:05:15;;;;;;;10.77;7.72;;;12.90;88.80;;;;;;4994801;28;20040;-76
2024/03/04 04:07:40;;;;;;;10.45;7.20;;;12.90;88.70;;;;;;4995116;28;20054;-77
2024/03/04 04:10:06;;;;;;;11.13;8.15;;;12.90;88.60;;;;;;4994687;28;20418;-77
2024/03/04 04:12:31;;;;;;;10.55;7.38;;;12.90;88.60;;;;;;4994569;28;20088;-78
2024/03/04 04:14:57;;;;;;;10.70;8.05;;;12.90;88.70;;;;;;5009454;28;20073;-78
2024/03/04 04:17:23;;;;;;;11.30;7.75;;;13.00;88.70;;;;;;5008731;28;20760;-78
2024/03/04 04:19:48;;;;;;;11.18;8.00;;;12.90;88.70;;;;;;4992800;28;20028;-78
2024/03/04 04:22:14;;;;;;;10.70;7.85;;;12.90;88.80;;;;;;4997913;28;20022;-79
2024/03/04 04:24:39;;;;;;;10.18;7.05;;;12.90;88.60;;;;;;4990856;28;20475;-78
2024/03/04 04:27:05;;;;;;;10.38;7.57;;;12.90;88.60;;;;;;4974366;28;20022;-77
2024/03/04 04:29:30;;;;;;;10.07;7.50;;;12.90;88.70;;;;;;4974903;28;20045;-79
2024/03/04 04:31:58;;;;;;;9.55;7.13;;;12.90;88.90;;;;;;4990585;28;20036;-79
2024/03/04 04:34:24;;;;;;;9.68;6.95;;;12.90;88.90;;;;;;4975538;28;20038;-79
2024/03/04 04:36:50;;;;;;;10.07;7.53;;;12.90;88.90;;;;;;4975095;28;20031;-78
2024/03/04 04:39:16;;;;;;;10.80;7.95;;;12.90;88.90;;;;;;4991311;28;20049;-79
2024/03/04 04:41:42;;;;;;;10.10;7.30;;;12.90;88.90;;;;;;4992188;28;20053;-77
2024/03/04 04:44:08;;;;;;;10.27;7.55;;;12.90;88.90;;;;;;4973864;28;20026;-80
2024/03/04 04:46:33;;;;;;;10.15;7.50;;;12.90;88.80;;;;;;4989209;28;20068;-77
2024/03/04 04:48:59;;;;;;;11.02;7.85;;;12.90;88.80;;;;;;4989335;28;20034;-77
2024/03/04 04:51:25;;;;;;;9.60;6.80;;;12.90;88.80;;;;;;4987406;28;20030;-76
2024/03/04 04:53:51;;;;;;;10.55;7.68;;;12.90;88.80;;;;;;4986969;28;20056;-77
2024/03/04 04:56:17;;;;;;;10.90;8.13;;;12.90;88.80;;;;;;4986847;28;20046;-77
2024/03/04 04:58:43;;;;;;;10.40;7.45;;;12.90;88.90;;;;;;4987898;28;20121;-75
2024/03/04 05:01:08;;;;;;;9.57;6.97;;;12.90;88.90;;;;;;4988220;28;20168;-76
2024/03/04 05:03:35;;;;;;;10.82;8.02;;;12.90;88.90;;;;;;4987923;28;20025;-76
2024/03/04 05:06:01;;;;;;;10.82;7.70;;;12.90;89.00;;;;;;4989812;28;20048;-76
2024/03/04 05:08:27;;;;;;;10.63;7.47;;;12.90;89.00;;;;;;4994606;28;20026;-78
2024/03/04 05:10:53;;;;;;;10.27;7.43;;;12.90;89.00;;;;;;4994292;28;20769;-78
2024/03/04 05:13:18;;;;;;;10.15;7.47;;;12.90;89.00;;;;;;5013730;28;20030;-78
2024/03/04 05:15:44;;;;;;;9.20;6.95;;;12.90;89.00;;;;;;5015022;28;20495;-78
2024/03/04 05:18:09;;;;;;;11.05;7.85;;;12.90;89.00;;;;;;4995130;28;20030;-78
2024/03/04 05:20:35;;;;;;;10.15;7.63;;;12.90;89.00;;;;;;5011483;28;20025;-77
2024/03/04 05:23:01;;;;;;;10.38;7.93;;;12.90;89.00;;;;;;4992260;28;20033;-76
2024/03/04 05:25:26;;;;;;;10.15;7.22;;;12.90;88.90;;;;;;5010062;28;20038;-77
2024/03/04 05:27:52;;;;;;;11.10;8.00;;;12.90;88.90;;;;;;4991927;28;20064;-76
2024/03/04 05:30:17;;;;;;;10.27;7.45;;;12.90;88.70;;;;;;4992581;28;20032;-77
2024/03/04 05:32:43;;;;;;;10.65;7.78;;;12.90;88.70;;;;;;5009934;28;20632;-77
2024/03/04 05:35:10;;;;;;;10.57;7.75;;;12.90;88.80;;;;;;4992652;28;20032;-78
2024/03/04 05:37:36;;;;;;;11.05;7.97;;;12.90;88.70;;;;;;4991291;28;20677;-76
2024/03/04 05:40:09;;;;;;;11.13;7.85;;;12.90;88.70;;;;;;4992053;28;20040;-77
2024/03/04 05:42:39;;;;;;;11.02;7.95;;;12.90;88.80;;;;;;4991841;28;20022;-77
2024/03/04 05:45:07;;;;;;;10.60;7.80;;;12.90;88.80;;;;;;5009608;28;20026;-76
2024/03/04 05:47:33;;;;;;;10.50;7.80;;;12.90;88.80;;;;;;5006599;28;20054;-77
2024/03/04 05:49:59;;;;;;;10.00;7.30;;;12.90;88.80;;;;;;4991713;28;20061;-77
2024/03/04 05:52:25;;;;;;;11.07;8.05;;;12.90;88.80;;;;;;4991488;28;20021;-77
2024/03/04 05:54:51;;;;;;;10.00;7.43;;;12.90;88.80;;;;;;4992242;28;20030;-78
2024/03/04 05:57:16;;;;;;;10.88;8.02;;;12.90;88.90;;;;;;4992311;28;20554;-77
2024/03/04 05:59:42;;;;;;;10.45;7.18;;;12.90;88.90;;;;;;4991733;28;20026;-77
2024/03/04 06:02:07;;;;;;;10.02;7.45;;;12.90;88.90;;;;;;4990809;28;20034;-76
2024/03/04 06:04:33;;;;;;;11.70;8.45;;;12.90;88.90;;;;;;4990679;28;20021;-76
2024/03/04 06:06:58;;;;;;;11.00;7.88;;;12.90;88.90;;;;;;4991600;28;20017;-76
2024/03/04 06:09:26;;;;;;;10.32;7.43;;;12.90;88.90;;;;;;4991636;28;20045;-76
2024/03/04 06:11:52;;;;;;;10.75;7.57;;;12.90;88.90;;;;;;5008841;28;20053;-77
2024/03/04 06:14:18;;;;;;;10.27;7.75;;;12.90;88.90;;;;;;4991576;28;20139;-76
2024/03/04 06:16:44;;;;;;;10.68;7.78;;;12.90;88.90;;;;;;5009071;28;20030;-76
2024/03/04 06:19:09;;;;;;;10.13;7.55;;;12.90;89.00;;;;;;5008865;28;20064;-77
2024/03/04 06:21:38;;;;;;;10.65;7.82;;;12.90;89.00;;;;;;5009289;28;20058;-76
2024/03/04 06:24:04;;;;;;;10.75;7.85;;;12.90;89.00;;;;;;5008843;28;20026;-78
2024/03/04 06:26:30;;;;;;;10.80;7.63;;;12.90;89.10;;;;;;5008975;28;20036;-77
2024/03/04 06:28:56;;;;;;;9.68;7.07;;;12.90;89.10;;;;;;4991853;28;20029;-76
2024/03/04 06:31:21;;;;;;;9.30;7.05;;;12.90;89.00;;;;;;5012609;28;20029;-77
2024/03/04 06:33:48;;;;;;;10.98;8.20;;;12.90;88.90;;;;;;4996216;28;20034;-77
2024/03/04 06:36:13;;;;;;;12.32;8.40;;;12.90;88.90;;;;;;4996645;28;20026;-76
2024/03/04 06:38:40;;;;;;;12.25;8.90;;;12.90;88.80;;;;;;4996283;28;20520;-77
2024/03/04 06:41:06;;;;;;;11.73;8.48;;;12.90;88.70;;;;;;4996839;28;20026;-76
2024/03/04 06:43:33;;;;;;;12.63;9.25;;;12.90;88.70;;;;;;5013902;28;20541;-77
2024/03/04 06:45:59;;;;;;;12.48;9.25;;;12.90;88.70;;;;;;4996481;28;20520;-76
2024/03/04 06:48:24;;;;;;;12.27;9.20;;;12.90;88.70;;;;;;4996784;28;20052;-76
2024/03/04 06:50:50;;;;;;;12.73;9.38;;;12.90;88.80;;;;;;5013938;28;20025;-77
2024/03/04 06:53:15;;;;;;;11.50;8.82;;;12.90;88.80;;;;;;4996057;28;20039;-77
2024/03/04 06:55:41;;;;;;;11.43;8.48;;;12.90;88.80;;;;;;4996595;28;20445;-76
2024/03/04 06:58:06;;;;;;;13.27;9.40;;;12.90;88.90;;;;;;5013826;28;20494;-76
2024/03/04 07:00:32;;;;;;;12.10;8.73;;;12.90;88.90;;;;;;4996650;28;20060;-77
2024/03/04 07:02:57;;;;;;;11.45;8.75;;;12.90;88.90;;;;;;5013955;28;20053;-77
2024/03/04 07:05:23;;;;;;;12.70;8.82;;;12.90;88.90;;;;;;5014301;28;20426;-77
2024/03/04 07:07:48;;;;;;;11.98;8.98;;;12.90;89.00;;;;;;4996210;28;20479;-76
2024/03/04 07:10:14;;;;;;;12.65;8.90;;;12.90;88.90;;;;;;4995647;28;20030;-77
2024/03/04 07:12:39;;;;;;;11.45;8.50;;;12.90;89.00;;;;;;4995710;28;20026;-76
2024/03/04 07:15:06;;;;;;;11.60;8.45;;;12.90;89.00;;;;;;4995790;28;20040;-76
2024/03/04 07:17:31;;;;;;;11.80;9.30;;;12.90;89.00;;;;;;4995726;28;20116;-77
2024/03/04 07:19:57;;;;;;;11.93;8.55;;;12.90;89.00;;;;;;5013587;28;20097;-77
2024/03/04 07:22:22;;;;;;;11.70;8.52;;;12.90;89.00;;;;;;4995728;28;20113;-77
2024/03/04 07:24:48;;;;;;;12.13;9.13;;;12.90;89.00;;;;;;4995749;28;20022;-77
2024/03/04 07:27:14;;;;;;;13.13;9.35;;;12.90;89.00;;;;;;5013967;28;20470;-77
2024/03/04 07:29:40;;;;;;;12.77;8.75;;;12.90;89.10;;;;;;4995221;28;20030;-77
2024/03/04 07:32:06;;;;;;;10.90;8.30;;;12.90;89.00;;;;;;4995520;28;20061;-77
2024/03/04 07:34:32;;;;;;;12.02;9.20;;;12.90;89.10;;;;;;4995373;28;20060;-77
2024/03/04 07:36:58;;;;;;;11.15;8.68;;;12.90;89.00;;;;;;5012989;28;20034;-77
2024/03/04 07:39:24;;;;;;;12.13;8.68;;;12.90;89.10;;;;;;4995245;28;20026;-77
2024/03/04 07:41:50;;;;;;;11.93;8.40;;;12.90;89.00;;;;;;5012840;28;20025;-77
2024/03/04 07:44:17;;;;;;;11.98;8.52;;;12.90;89.00;;;;;;4995382;28;20030;-77
2024/03/04 07:46:43;;;;;;;12.00;8.85;;;12.90;89.00;;;;;;4995340;28;20114;-77
2024/03/04 07:49:09;;;;;;;10.77;7.95;;;12.90;89.10;;;;;;5013047;28;20118;-77
2024/03/04 07:51:34;;;;;;;12.07;8.88;;;12.90;89.10;;;;;;4995577;28;20524;-77
2024/03/04 07:54:00;;;;;;;11.60;9.15;;;12.90;89.10;;;;;;4995465;28;20034;-77
2024/03/04 07:56:25;;;;;;;11.90;8.95;;;12.90;89.10;;;;;;4995528;28;20092;-78
2024/03/04 07:58:51;;;;;;;12.48;8.90;;;12.90;89.10;;;;;;5012861;28;20061;-77
2024/03/04 08:01:16;;;;;;;11.73;8.52;;;12.90;89.10;;;;;;4995669;28;20382;-77
2024/03/04 08:03:42;;;;;;;11.13;8.32;;;12.80;89.00;;;;;;5012592;28;20091;-77
2024/03/04 08:06:08;;;;;;;12.43;8.63;;;12.90;89.10;;;;;;4995284;28;20022;-76
2024/03/04 08:08:33;;;;;;;11.82;9.00;;;12.90;89.10;;;;;;4995310;28;20026;-77
2024/03/04 08:10:59;;;;;;;11.38;8.60;;;12.90;89.10;;;;;;5012793;28;20029;-77
2024/03/04 08:13:25;;;;;;;11.40;8.57;;;12.90;89.10;;;;;;5012676;28;20038;-76
2024/03/04 08:15:52;;;;;;;11.88;8.50;;;12.90;89.00;;;;;;4995237;28;20029;-77
2024/03/04 08:18:18;;;;;;;11.02;8.13;;;12.90;89.10;;;;;;4995230;28;20053;-77
2024/03/04 08:20:43;;;;;;;12.02;8.73;;;12.90;89.10;;;;;;4994765;28;20111;-78
2024/03/04 08:23:09;;;;;;;12.45;8.73;;;12.90;89.10;;;;;;5012172;28;20057;-77
2024/03/04 08:25:34;;;;;;;10.57;8.20;;;12.90;89.10;;;;;;4994939;28;20025;-77
2024/03/04 08:28:00;;;;;;;11.32;7.95;;;12.90;89.10;;;;;;4994516;28;20097;-77
2024/03/04 08:30:25;;;;;;;11.30;8.38;;;12.90;89.10;;;;;;4994935;28;20026;-77
2024/03/04 08:32:53;;;;;;;11.88;8.50;;;12.90;89.10;;;;;;4994345;28;20032;-77
2024/03/04 08:35:19;;;;;;;11.63;8.55;;;12.90;89.10;;;;;;4994707;28;20486;-76
2024/03/04 08:37:44;;;;;;;12.18;8.75;;;12.90;89.10;;;;;;4994367;28;20040;-77
2024/03/04 08:40:12;;;;;;;11.68;8.60;;;12.90;89.10;;;;;;4993742;28;20036;-76
2024/03/04 08:42:39;;;;;;;11.05;8.45;;;12.90;89.10;;;;;;4994538;28;20371;-77
2024/03/04 08:45:06;;;;;;;12.15;8.95;;;12.90;89.10;;;;;;5012552;28;20462;-77
2024/03/04 08:47:31;;;;;;;11.25;8.25;;;12.90;89.10;;;;;;4994710;28;20030;-77
2024/03/04 08:49:57;;;;;;;11.82;8.75;;;12.90;89.10;;;;;;4994589;28;20143;-77
2024/03/04 08:52:23;;;;;;;10.95;8.10;;;12.90;89.10;;;;;;4994017;28;20506;-77
2024/03/04 08:54:48;;;;;;;11.52;8.23;;;12.90;89.10;;;;;;4994594;28;20099;-77
2024/03/04 08:57:14;;;;;;;11.65;9.10;;;12.90;89.10;;;;;;4994456;28;20491;-77
2024/03/04 08:59:41;;;;;;;11.52;8.50;;;12.90;89.10;;;;;;4993991;28;20125;-77
2024/03/04 09:02:06;;;;;;;11.70;8.57;;;12.90;89.10;;;;;;5011347;28;20037;-77
2024/03/04 09:04:32;;;;;;;10.57;7.88;;;12.90;89.10;;;;;;5011848;28;20018;-77
2024/03/04 09:06:58;;;;;;;11.48;8.45;;;12.90;89.20;;;;;;5011905;28;20033;-77
2024/03/04 09:09:23;;;;;;;10.75;8.07;;;12.90;89.10;;;;;;4994275;28;20030;-77
2024/03/04 09:11:51;;;;;;;11.85;8.57;;;12.90;89.10;;;;;;4993984;28;20391;-76
2024/03/04 09:14:17;;;;;;;10.85;8.30;;;12.90;89.70;;;;;;5011893;28;20096;-77
2024/03/04 09:16:43;;;;;;;11.68;8.40;;;12.90;89.10;;;;;;5011536;28;20562;-77
2024/03/04 09:19:10;;;;;;;11.27;8.32;;;12.90;89.10;;;;;;5011315;28;20029;-77
2024/03/04 09:21:36;;;;;;;10.40;7.82;;;12.90;89.10;;;;;;5011877;28;20390;-76
2024/03/04 09:24:02;;;;;;;11.00;8.18;;;12.90;89.20;;;;;;4993968;28;20018;-77
2024/03/04 09:26:27;;;;;;;11.20;8.40;;;12.90;89.10;;;;;;5012187;28;20450;-76
2024/03/04 09:28:53;;;;;;;11.27;8.15;;;12.90;89.10;;;;;;5011703;28;20029;-77
2024/03/04 09:31:18;;;;;;;11.10;8.48;;;12.90;89.10;;;;;;5011906;28;20112;-77
2024/03/04 09:33:47;;;;;;;11.77;8.55;;;12.90;89.20;;;;;;4993432;28;20030;-77
2024/03/04 09:36:14;;;;;;;11.00;8.38;;;12.90;89.10;;;;;;4993595;28;20056;-76
2024/03/04 09:38:43;;;;;;;10.80;8.15;;;12.90;89.10;;;;;;5011353;28;20509;-76
2024/03/04 09:41:08;;;;;;;11.07;8.05;;;12.90;89.20;;;;;;5011845;28;20018;-77
2024/03/04 09:43:37;;;;;;;11.07;8.23;;;12.90;89.20;;;;;;4993585;28;20517;-76
2024/03/04 09:46:06;;;;;;;11.43;8.20;;;12.90;89.20;;;;;;5011715;28;20021;-75
2024/03/04 09:48:32;;;;;;;10.95;8.15;;;12.90;89.20;;;;;;5011387;28;20029;-77
2024/03/04 09:51:01;;;;;;;10.20;7.40;;;12.90;89.20;;;;;;4993601;28;20566;-77
2024/03/04 09:53:27;;;;;;;11.50;8.25;;;12.90;89.20;;;;;;5014502;28;20033;-77
2024/03/04 09:55:53;;;;;;;11.40;8.40;;;12.90;89.20;;;;;;5014970;28;20105;-77
2024/03/04 09:58:19;;;;;;;11.38;8.20;;;12.90;89.20;;;;;;4997191;28;20133;-77
2024/03/04 10:00:45;;;;;;;11.73;8.57;;;12.90;89.20;;;;;;4997479;28;20041;-77
2024/03/04 10:03:11;;;;;;;11.05;8.20;;;12.90;89.20;;;;;;5014959;28;20018;-77
2024/03/04 10:05:37;;;;;;;10.75;8.15;;;12.90;89.20;;;;;;4997392;28;20117;-77
2024/03/04 10:08:03;;;;;;;10.65;8.02;;;12.90;89.20;;;;;;4997326;28;20030;-77
2024/03/04 10:10:29;;;;;;;11.75;8.30;;;12.90;89.20;;;;;;5015116;28;20092;-76
2024/03/04 10:12:54;;;;;;;11.10;8.18;;;12.90;89.10;;;;;;4997036;28;20026;-77
2024/03/04 10:15:22;;;;;;;11.10;8.05;;;12.90;89.20;;;;;;4997251;28;20375;-75
2024/03/04 10:17:48;;;;;;;10.20;7.72;;;12.90;89.20;;;;;;5014596;28;20030;-78
2024/03/04 10:20:17;;;;;;;10.90;7.93;;;12.90;89.20;;;;;;4996880;28;20025;-77
2024/03/04 10:22:43;;;;;;;10.55;7.75;;;12.90;89.20;;;;;;4996668;28;20066;-77
2024/03/04 10:25:13;;;;;;;10.25;7.70;;;12.90;89.20;;;;;;4996925;28;20061;-78
2024/03/04 10:27:41;;;;;;;10.70;7.90;;;12.90;89.10;;;;;;4996659;28;20054;-77
2024/03/04 10:30:14;;;;;;;10.85;8.13;;;12.90;89.10;;;;;;4996751;28;20030;-77
2024/03/04 10:32:52;;;;;;;10.88;8.32;;;12.90;89.10;;;;;;4996420;28;20026;-77
2024/03/04 10:35:18;;;;;;;11.05;7.80;;;12.90;89.20;;;;;;5014161;28;20018;-78
2024/03/04 10:37:45;;;;;;;11.90;8.80;;;12.90;89.20;;;;;;4996432;28;20108;-78
2024/03/04 10:40:11;;;;;;;11.15;8.45;;;12.90;89.10;;;;;;4996794;28;20461;-78
2024/03/04 10:42:40;;;;;;;11.60;8.25;;;12.90;89.20;;;;;;4996379;28;20022;-77
2024/03/04 10:45:08;;;;;;;10.95;8.20;;;12.90;89.10;;;;;;4996679;28;20037;-78
2024/03/04 10:47:34;;;;;;;11.05;8.25;;;12.90;89.20;;;;;;4996490;28;20521;-77
2024/03/04 10:49:59;;;;;;;11.32;8.23;;;12.90;89.20;;;;;;5013796;28;20041;-77
2024/03/04 10:52:26;;;;;;;10.50;7.47;;;12.90;89.20;;;;;;4996241;28;20395;-77
2024/03/04 10:54:51;;;;;;;10.93;8.13;;;12.90;89.10;;;;;;4996532;28;20034;-78
2024/03/04 10:57:32;;;;;;;10.50;7.57;;;12.90;89.20;;;;;;4996428;28;20029;-77
2024/03/04 11:00:17;;;;;;;11.27;8.37;;;12.90;89.20;;;;;;5013964;28;20058;-78
2024/03/04 11:03:01;;;;;;;10.55;8.13;;;12.90;89.20;;;;;;4996044;28;20265;-77
2024/03/04 11:05:32;;;;;;;10.95;8.10;;;12.90;89.20;;;;;;5013703;28;20025;-76
2024/03/04 11:08:16;;;;;;;10.52;7.85;;;12.90;89.20;;;;;;5013765;28;20022;-76
2024/03/04 11:10:53;;;;;;;11.15;8.30;;;12.90;89.20;;;;;;4995955;28;20133;-77
2024/03/04 11:13:35;;;;;;;10.80;8.23;;;12.90;89.20;;;;;;4995893;28;20613;-76
2024/03/04 11:16:06;;;;;;;11.00;8.23;;;12.90;89.20;;;;;;5013835;28;20030;-77
2024/03/04 11:19:14;;;;;;;10.32;7.72;;;12.90;89.20;;;;;;4996073;28;20124;-77
2024/03/04 11:21:40;;;;;;;11.80;8.50;;;12.90;89.20;;;;;;4995707;28;20026;-77
2024/03/04 11:24:08;;;;;;;11.23;8.05;;;12.90;89.20;;;;;;4995532;28;20026;-78
2024/03/04 11:26:36;;;;;;;11.35;8.35;;;13.00;89.20;;;;;;4995887;28;20057;-77
2024/03/04 11:29:02;;;;;;;11.35;8.20;;;12.90;89.20;;;;;;4995852;28;20048;-77
2024/03/04 11:31:29;;;;;;;11.55;8.30;;;12.90;89.20;;;;;;4995782;28;20030;-76
2024/03/04 11:34:03;;;;;;;10.60;7.80;;;12.90;89.20;;;;;;4995404;28;20022;-78
2024/03/04 11:36:29;;;;;;;10.60;7.82;;;12.90;89.10;;;;;;5013221;28;20029;-77
2024/03/04 11:38:56;;;;;;;10.48;7.50;;;12.90;89.10;;;;;;5013229;28;20037;-78
2024/03/04 11:41:44;;;;;;;11.27;8.38;;;12.90;89.20;;;;;;4995546;28;20030;-76
2024/03/04 11:44:09;;;;;;;10.07;7.70;;;13.00;89.20;;;;;;4995316;28;20422;-76
2024/03/04 11:46:40;;;;;;;11.02;8.10;;;12.90;89.20;;;;;;4995155;28;20026;-77
2024/03/04 11:49:25;;;;;;;11.02;7.90;;;12.90;89.20;;;;;;5012788;28;20116;-76
2024/03/04 11:52:07;;;;;;;10.35;7.75;;;12.90;89.20;;;;;;4995344;28;20041;-77
2024/03/04 11:54:32;;;;;;;;;;;12.90;89.20;;;;;;4995736;28;20088;-77
2024/03/04 11:56:59;;;;;;;10.50;7.97;;;12.90;89.20;;;;;;4995069;28;19913;-76
2024/03/04 11:59:24;;;;;;;10.60;7.93;;;13.00;89.20;;;;;;5013069;28;20109;-76
2024/03/04 12:01:50;;;;;;;11.15;8.18;;;12.90;89.20;;;;;;4994761;28;20090;-76
2024/03/04 12:04:17;;;;;;;11.23;8.30;;;12.90;89.20;;;;;;5013144;28;20052;-77
2024/03/04 12:06:44;;;;;;;10.75;8.02;;;13.00;89.20;;;;;;4994900;28;20026;-76
2024/03/04 12:09:09;;;;;;;10.63;7.95;;;12.90;89.20;;;;;;4994911;28;20099;-76
2024/03/04 12:11:35;;;;;;;9.18;6.90;;;12.90;89.20;;;;;;4994886;28;20482;-77
2024/03/04 12:14:00;;;;;;;9.85;7.22;;;13.00;89.20;;;;;;4994503;28;20080;-77
2024/03/04 12:16:26;;;;;;;11.73;7.75;;;13.00;89.20;;;;;;4993887;28;20025;-77
2024/03/04 12:18:51;;;;;;;11.25;7.72;;;12.90;89.20;;;;;;4994807;28;20100;-77
2024/03/04 12:21:19;;;;;;;11.73;8.23;;;12.90;89.20;;;;;;4994899;28;20041;-77
2024/03/04 12:23:44;;;;;;;10.82;7.68;;;12.90;89.20;;;;;;4994569;28;20509;-77
2024/03/04 12:26:14;;;;;;;11.63;8.18;;;13.00;89.20;;;;;;5012501;28;20108;-77
2024/03/04 12:28:39;;;;;;;11.30;8.10;;;12.90;89.20;;;;;;5011966;28;20033;-77
2024/03/04 12:31:12;;;;;;;10.65;7.63;;;12.90;89.20;;;;;;4994582;28;20033;-76
2024/03/04 12:33:37;;;;;;;11.68;8.23;;;12.90;89.20;;;;;;4994289;28;20029;-77
2024/03/04 12:36:06;;;;;;;11.30;8.15;;;12.90;89.20;;;;;;4993955;28;20037;-77
2024/03/04 12:38:33;;;;;;;12.15;8.18;;;13.00;89.30;;;;;;4994255;28;20029;-77